createdAt,value
2022-08-04T00:01:52.950Z,22.15
2022-08-04T00:04:28.330Z,22.12
2022-08-04T00:07:02.051Z,22.11
2022-08-04T00:09:58.645Z,22.08
2022-08-04T00:12:32.502Z,22.06
2022-08-04T00:15:05.416Z,22.04
2022-08-04T00:17:40.506Z,22.03
2022-08-04T00:20:10.499Z,22.02
2022-08-04T00:22:41.276Z,21.99
2022-08-04T00:25:10.981Z,21.95
2022-08-04T00:27:39.670Z,21.93
2022-08-04T00:30:08.932Z,21.91
2022-08-04T00:32:37.025Z,21.87
2022-08-04T00:35:06.129Z,21.82
2022-08-04T00:37:34.396Z,21.79
2022-08-04T00:40:02.696Z,21.76
2022-08-04T00:42:58.293Z,21.70
2022-08-04T00:46:15.060Z,21.67
2022-08-04T00:48:53.106Z,21.62
2022-08-04T00:51:27.525Z,21.58
2022-08-04T00:54:03.361Z,21.53
2022-08-04T00:56:52.051Z,21.46
2022-08-04T00:59:32.980Z,21.42
2022-08-04T01:02:02.661Z,21.39
2022-08-04T01:04:47.665Z,21.37
2022-08-04T01:07:33.231Z,21.31
2022-08-04T01:10:07.784Z,21.28
2022-08-04T01:12:49.734Z,21.24
2022-08-04T01:15:27.142Z,21.17
2022-08-04T01:18:23.060Z,21.10
2022-08-04T01:21:01.641Z,21.10
2022-08-04T01:23:42.949Z,21.07
2022-08-04T01:26:43.490Z,21.08
2022-08-04T01:29:14.953Z,21.05
2022-08-04T01:32:02.048Z,21.06
2022-08-04T01:34:32.635Z,21.04
2022-08-04T01:37:03.833Z,21.03
2022-08-04T01:39:43.535Z,20.99
2022-08-04T01:42:12.747Z,20.96
2022-08-04T01:45:02.011Z,20.92
2022-08-04T01:47:31.918Z,20.90
2022-08-04T01:50:07.855Z,20.85
2022-08-04T01:52:36.892Z,20.82
2022-08-04T01:55:06.977Z,20.82
2022-08-04T01:57:37.854Z,20.82
2022-08-04T02:00:10.595Z,20.79
2022-08-04T02:03:04.851Z,20.77
2022-08-04T02:06:03.096Z,20.75
2022-08-04T02:08:23.574Z,20.76
2022-08-04T02:11:04.571Z,20.73
2022-08-04T02:13:36.282Z,20.71
2022-08-04T02:16:08.871Z,20.69
2022-08-04T02:18:47.983Z,20.69
2022-08-04T02:21:18.038Z,20.66
2022-08-04T02:23:49.031Z,20.62
2022-08-04T02:26:22.241Z,20.59
2022-08-04T02:28:56.316Z,20.53
2022-08-04T02:31:30.046Z,20.51
2022-08-04T02:34:05.398Z,20.48
2022-08-04T02:36:38.422Z,20.45
2022-08-04T02:39:08.209Z,20.43
2022-08-04T02:41:36.837Z,20.41
2022-08-04T02:44:06.407Z,20.38
2022-08-04T02:46:37.794Z,20.35
2022-08-04T02:49:07.317Z,20.31
2022-08-04T02:51:37.017Z,20.25
2022-08-04T02:54:06.683Z,20.18
2022-08-04T02:56:37.491Z,20.11
2022-08-04T02:59:09.523Z,20.08
2022-08-04T03:01:58.015Z,20.02
2022-08-04T03:04:44.782Z,20.00
2022-08-04T03:07:30.753Z,19.93
2022-08-04T03:10:21.366Z,19.86
2022-08-04T03:13:24.485Z,19.83
2022-08-04T03:16:07.657Z,19.79
2022-08-04T03:22:03.072Z,19.78
2022-08-04T03:25:15.466Z,19.73
2022-08-04T03:28:13.438Z,19.69
2022-08-04T03:30:51.783Z,19.64
2022-08-04T03:33:40.966Z,19.56
2022-08-04T03:36:42.972Z,19.52
2022-08-04T03:39:41.918Z,19.48
2022-08-04T03:42:35.134Z,19.44
2022-08-04T03:45:24.018Z,19.41
2022-08-04T03:48:18.060Z,19.40
2022-08-04T03:51:36.115Z,19.40
2022-08-04T03:54:36.199Z,19.37
2022-08-04T03:57:25.306Z,19.37
2022-08-04T04:00:08.745Z,19.35
2022-08-04T04:03:28.357Z,19.35
2022-08-04T04:06:36.362Z,19.34
2022-08-04T04:09:58.149Z,19.31
2022-08-04T04:12:57.069Z,19.30
2022-08-04T04:15:39.119Z,19.29
2022-08-04T04:18:21.125Z,19.27
2022-08-04T04:21:00.216Z,19.26
2022-08-04T04:23:51.704Z,19.24
2022-08-04T04:26:38.751Z,19.16
2022-08-04T04:29:41.568Z,19.16
2022-08-04T04:32:23.050Z,19.15
2022-08-04T04:35:19.960Z,19.16
2022-08-04T04:37:58.730Z,19.13
2022-08-04T04:40:47.843Z,19.13
2022-08-04T04:43:51.579Z,19.11
2022-08-04T04:46:31.855Z,19.11
2022-08-04T04:49:04.579Z,19.09
2022-08-04T04:51:37.528Z,19.10
2022-08-04T04:54:09.657Z,19.11
2022-08-04T04:56:41.562Z,19.12
2022-08-04T04:59:12.791Z,19.12
2022-08-04T05:01:58.750Z,19.15
2022-08-04T05:04:39.314Z,19.17
2022-08-04T05:07:37.299Z,19.17
2022-08-04T05:10:11.924Z,19.21
2022-08-04T05:14:37.277Z,19.21
2022-08-04T05:15:45.420Z,19.26
2022-08-04T05:18:17.979Z,19.28
2022-08-04T05:20:49.164Z,19.31
2022-08-04T05:23:19.829Z,19.34
2022-08-04T05:25:58.674Z,19.35
2022-08-04T05:28:30.374Z,19.39
2022-08-04T05:31:01.864Z,19.43
2022-08-04T05:33:34.299Z,19.45
2022-08-04T05:36:19.036Z,19.50
2022-08-04T05:38:54.361Z,19.53
2022-08-04T05:41:23.596Z,19.58
2022-08-04T05:44:01.619Z,19.61
2022-08-04T05:46:31.998Z,19.67
2022-08-04T05:49:00.277Z,19.71
2022-08-04T05:51:30.933Z,19.76
2022-08-04T05:53:59.416Z,19.80
2022-08-04T05:56:27.882Z,19.84
2022-08-04T05:58:56.571Z,19.89
2022-08-04T06:01:25.701Z,19.90
2022-08-04T06:03:58.739Z,20.01
2022-08-04T06:06:27.955Z,20.08
2022-08-04T06:08:57.303Z,20.13
2022-08-04T06:11:28.003Z,20.19
2022-08-04T06:13:58.835Z,20.27
2022-08-04T06:16:32.142Z,20.34
2022-08-04T06:20:00.894Z,20.41
2022-08-04T06:21:55.733Z,20.48
2022-08-04T06:24:27.597Z,20.54
2022-08-04T06:26:56.403Z,20.59
2022-08-04T06:29:28.373Z,20.63
2022-08-04T06:32:29.771Z,20.70
2022-08-04T06:34:49.311Z,20.75
2022-08-04T06:37:41.029Z,20.82
2022-08-04T06:40:30.822Z,20.90
2022-08-04T06:42:55.102Z,20.95
2022-08-04T06:45:23.373Z,21.00
2022-08-04T06:47:51.609Z,21.04
2022-08-04T06:51:24.985Z,21.15
2022-08-04T06:53:09.385Z,21.20
2022-08-04T06:55:38.641Z,21.29
2022-08-04T06:58:07.775Z,21.35
2022-08-04T07:00:37.466Z,21.47
2022-08-04T07:03:05.782Z,21.55
2022-08-04T07:05:35.986Z,21.58
2022-08-04T07:08:05.771Z,21.67
2022-08-04T07:10:33.981Z,21.78
2022-08-04T07:13:02.487Z,21.88
2022-08-04T07:15:31.093Z,21.91
2022-08-04T07:18:01.330Z,21.99
2022-08-04T07:20:34.845Z,22.10
2022-08-04T07:23:05.756Z,22.20
2022-08-04T07:26:00.425Z,22.26
2022-08-04T07:28:24.812Z,22.35
2022-08-04T07:30:54.217Z,22.43
2022-08-04T07:33:22.982Z,22.51
2022-08-04T07:36:05.027Z,22.60
2022-08-04T07:38:46.515Z,22.63
2022-08-04T07:41:37.754Z,22.70
2022-08-04T07:44:06.754Z,22.78
2022-08-04T07:46:35.033Z,22.86
2022-08-04T07:49:03.086Z,22.95
2022-08-04T07:51:32.464Z,23.06
2022-08-04T07:54:03.448Z,23.13
2022-08-04T07:56:32.376Z,23.22
2022-08-04T07:59:01.132Z,23.33
2022-08-04T08:01:29.682Z,23.43
2022-08-04T08:03:59.274Z,23.52
2022-08-04T08:06:32.243Z,23.60
2022-08-04T08:09:13.554Z,23.67
2022-08-04T08:12:35.576Z,23.73
2022-08-04T08:14:31.994Z,23.87
2022-08-04T08:17:01.580Z,23.90
2022-08-04T08:19:29.881Z,23.97
2022-08-04T08:21:59.147Z,24.09
2022-08-04T08:24:30.259Z,24.18
2022-08-04T08:26:58.654Z,24.36
2022-08-04T08:29:27.698Z,24.47
2022-08-04T08:32:01.388Z,24.49
2022-08-04T08:34:32.455Z,24.56
2022-08-04T08:37:04.780Z,24.62
2022-08-04T08:39:37.717Z,24.66
2022-08-04T08:42:32.367Z,24.74
2022-08-04T08:45:32.823Z,24.80
2022-08-04T08:48:12.851Z,24.90
2022-08-04T08:51:11.445Z,25.06
2022-08-04T08:53:56.003Z,25.19
2022-08-04T08:56:34.829Z,25.24
2022-08-04T08:59:17.278Z,25.29
2022-08-04T09:02:04.667Z,25.32
2022-08-04T09:04:49.564Z,25.45
2022-08-04T09:07:50.977Z,25.54
2022-08-04T09:10:22.084Z,25.59
2022-08-04T09:12:55.301Z,25.65
2022-08-04T09:15:29.740Z,25.73
2022-08-04T09:18:02.041Z,25.81
2022-08-04T09:20:32.814Z,25.85
2022-08-04T09:23:08.107Z,25.94
2022-08-04T09:25:40.840Z,26.02
2022-08-04T09:28:43.611Z,26.10
2022-08-04T09:31:12.924Z,26.21
2022-08-04T09:33:46.222Z,26.37
2022-08-04T09:36:26.107Z,26.46
2022-08-04T09:39:05.312Z,26.54
2022-08-04T09:41:49.201Z,26.60
2022-08-04T09:44:49.972Z,26.73
2022-08-04T09:47:20.550Z,26.94
2022-08-04T09:49:52.475Z,27.04
2022-08-04T09:52:28.310Z,27.12
2022-08-04T09:55:05.935Z,27.17
2022-08-04T09:57:46.479Z,27.23
2022-08-04T10:00:17.165Z,27.31
2022-08-04T10:03:13.667Z,27.42
2022-08-04T10:05:55.059Z,27.52
2022-08-04T10:08:35.150Z,27.60
2022-08-04T10:11:08.748Z,27.64
2022-08-04T10:13:47.298Z,27.75
2022-08-04T10:16:39.449Z,27.86
2022-08-04T10:19:16.918Z,27.93
2022-08-04T10:21:59.896Z,28.09
2022-08-04T10:24:55.077Z,28.14
2022-08-04T10:27:27.178Z,28.11
2022-08-04T10:29:59.308Z,28.22
2022-08-04T10:32:32.804Z,28.36
2022-08-04T10:35:12.060Z,28.38
2022-08-04T10:38:01.016Z,28.48
2022-08-04T10:40:47.761Z,28.55
2022-08-04T10:43:25.315Z,28.63
2022-08-04T10:45:59.427Z,28.70
2022-08-04T10:48:37.553Z,28.67
2022-08-04T10:51:16.494Z,28.85
2022-08-04T10:53:45.042Z,28.98
2022-08-04T10:56:17.277Z,28.95
2022-08-04T10:58:49.081Z,28.95
2022-08-04T11:02:00.035Z,29.05
2022-08-04T11:04:16.058Z,29.20
2022-08-04T11:06:56.684Z,29.33
2022-08-04T11:09:24.980Z,29.22
2022-08-04T11:12:00.294Z,29.37
2022-08-04T11:14:34.761Z,29.49
2022-08-04T11:17:07.599Z,29.57
2022-08-04T11:19:45.392Z,29.67
2022-08-04T11:22:19.180Z,29.76
2022-08-04T11:24:52.889Z,29.76
2022-08-04T11:27:30.865Z,29.82
2022-08-04T11:30:03.809Z,29.82
2022-08-04T11:32:37.647Z,29.82
2022-08-04T11:35:11.232Z,29.94
2022-08-04T11:37:44.445Z,29.96
2022-08-04T11:40:15.127Z,29.94
2022-08-04T11:42:53.334Z,30.04
2022-08-04T11:45:26.347Z,30.07
2022-08-04T11:48:00.685Z,30.02
2022-08-04T11:50:34.673Z,30.17
2022-08-04T11:53:03.727Z,30.22
2022-08-04T11:56:07.510Z,30.33
2022-08-04T11:58:22.251Z,30.28
2022-08-04T12:00:58.294Z,30.32
2022-08-04T12:03:37.590Z,30.35
2022-08-04T12:06:19.512Z,30.48
2022-08-04T12:09:01.720Z,30.61
2022-08-04T12:11:47.976Z,30.73
2022-08-04T12:14:38.831Z,30.71
2022-08-04T12:17:08.616Z,30.83
2022-08-04T12:20:03.167Z,30.87
2022-08-04T12:22:33.905Z,30.92
2022-08-04T12:25:07.569Z,30.90
2022-08-04T12:27:38.692Z,30.99
2022-08-04T12:30:58.982Z,30.95
2022-08-04T12:33:01.469Z,30.97
2022-08-04T12:35:32.491Z,30.93
2022-08-04T12:38:06.343Z,31.09
2022-08-04T12:40:39.521Z,31.09
2022-08-04T12:43:14.526Z,31.20
2022-08-04T12:45:48.605Z,31.23
2022-08-04T12:48:21.076Z,31.30
2022-08-04T12:50:50.110Z,31.48
2022-08-04T12:53:31.420Z,31.61
2022-08-04T12:56:02.396Z,31.71
2022-08-04T12:58:43.330Z,31.85
2022-08-04T13:02:06.974Z,31.76
2022-08-04T13:04:05.081Z,31.91
2022-08-04T13:06:35.713Z,31.99
2022-08-04T13:09:09.600Z,32.11
2022-08-04T13:11:50.718Z,32.17
2022-08-04T13:14:27.059Z,32.29
2022-08-04T13:16:59.373Z,32.45
2022-08-04T13:19:28.855Z,32.58
2022-08-04T13:22:02.932Z,32.53
2022-08-04T13:24:56.311Z,32.55
2022-08-04T13:27:55.418Z,32.72
2022-08-04T13:30:26.713Z,32.83
2022-08-04T13:32:57.043Z,32.91
2022-08-04T13:35:54.404Z,33.07
2022-08-04T13:38:15.960Z,33.22
2022-08-04T13:40:45.977Z,33.17
2022-08-04T13:44:16.423Z,33.13
2022-08-04T13:46:28.075Z,33.31
2022-08-04T13:49:25.878Z,33.27
2022-08-04T13:51:57.467Z,33.35
2022-08-04T13:54:27.227Z,33.52
2022-08-04T13:57:01.832Z,33.57
2022-08-04T13:59:35.700Z,33.73
2022-08-04T14:02:08.929Z,33.94
2022-08-04T14:04:43.340Z,34.08
2022-08-04T14:07:18.085Z,34.24
2022-08-04T14:10:03.174Z,34.27
2022-08-04T14:12:38.466Z,34.37
2022-08-04T14:16:02.541Z,34.39
2022-08-04T14:18:28.850Z,34.45
2022-08-04T14:21:05.710Z,34.58
2022-08-04T14:23:47.036Z,34.56
2022-08-04T14:26:20.472Z,34.48
2022-08-04T14:29:27.760Z,34.59
2022-08-04T14:32:06.196Z,34.88
2022-08-04T14:34:41.548Z,35.12
2022-08-04T14:37:17.211Z,35.30
2022-08-04T14:40:19.401Z,35.36
2022-08-04T14:42:44.666Z,35.39
2022-08-04T14:45:34.150Z,35.51
2022-08-04T14:48:03.921Z,35.47
2022-08-04T14:50:41.103Z,35.50
2022-08-04T14:53:10.355Z,35.73
2022-08-04T14:55:40.230Z,35.51
2022-08-04T14:58:34.041Z,35.67
2022-08-04T15:01:01.085Z,35.56
2022-08-04T15:03:50.597Z,35.66
2022-08-04T15:06:23.025Z,35.74
2022-08-04T15:08:52.035Z,36.02
2022-08-04T15:11:23.530Z,36.06
2022-08-04T15:13:52.521Z,36.16
2022-08-04T15:16:22.897Z,36.33
2022-08-04T15:18:54.456Z,36.49
2022-08-04T15:21:23.858Z,36.49
2022-08-04T15:23:51.968Z,36.61
2022-08-04T15:26:26.469Z,36.73
2022-08-04T15:28:57.323Z,36.76
2022-08-04T15:32:07.570Z,36.70
2022-08-04T15:34:15.738Z,36.85
2022-08-04T15:36:57.203Z,37.03
2022-08-04T15:39:33.126Z,37.14
2022-08-04T15:42:16.185Z,37.22
2022-08-04T15:45:20.245Z,37.26
2022-08-04T15:48:29.019Z,37.34
2022-08-04T15:51:17.427Z,37.40
2022-08-04T15:54:27.312Z,37.45
2022-08-04T15:57:02.347Z,37.30
2022-08-04T16:00:09.922Z,37.33
2022-08-04T16:02:44.339Z,37.29
2022-08-04T16:05:39.483Z,37.39
2022-08-04T16:08:12.903Z,37.47
2022-08-04T16:10:42.284Z,37.30
2022-08-04T16:13:13.834Z,37.13
2022-08-04T16:15:44.204Z,37.16
2022-08-04T16:18:26.566Z,37.34
2022-08-04T16:20:58.533Z,37.29
2022-08-04T16:23:55.039Z,37.32
2022-08-04T16:26:46.155Z,37.01
2022-08-04T16:29:34.199Z,36.95
2022-08-04T16:32:22.470Z,36.44
2022-08-04T16:34:56.372Z,36.47
2022-08-04T16:37:31.716Z,36.64
2022-08-04T16:40:28.546Z,36.54
2022-08-04T16:43:07.126Z,36.42
2022-08-04T16:45:47.054Z,36.27
2022-08-04T16:48:15.670Z,36.13
2022-08-04T16:50:49.457Z,36.01
2022-08-04T16:53:52.374Z,36.00
2022-08-04T16:56:08.515Z,35.91
2022-08-04T16:58:37.173Z,35.87
2022-08-04T17:01:21.854Z,35.79
2022-08-04T17:04:05.109Z,35.59
2022-08-04T17:06:35.528Z,35.54
2022-08-04T17:09:07.479Z,35.46
2022-08-04T17:11:35.698Z,35.18
2022-08-04T17:14:05.903Z,35.10
2022-08-04T17:16:36.198Z,35.01
2022-08-04T17:19:06.239Z,34.92
2022-08-04T17:21:36.335Z,34.80
2022-08-04T17:24:12.639Z,34.64
2022-08-04T17:26:51.907Z,34.58
2022-08-04T17:29:44.163Z,34.53
2022-08-04T17:32:17.418Z,34.42
2022-08-04T17:34:49.044Z,34.27
2022-08-04T17:37:39.950Z,34.21
2022-08-04T17:40:22.885Z,34.06
2022-08-04T17:43:03.302Z,33.91
2022-08-04T17:46:15.771Z,33.70
2022-08-04T17:49:09.147Z,33.53
2022-08-04T17:52:06.977Z,33.40
2022-08-04T17:54:37.206Z,33.19
2022-08-04T17:57:19.869Z,33.11
2022-08-04T18:02:37.675Z,33.05
2022-08-04T18:05:11.638Z,33.06
2022-08-04T18:08:38.746Z,33.03
2022-08-04T18:10:51.790Z,32.99
2022-08-04T18:13:28.835Z,32.91
2022-08-04T18:16:03.881Z,32.84
2022-08-04T18:18:32.967Z,32.77
2022-08-04T18:21:02.777Z,32.70
2022-08-04T18:23:33.289Z,32.63
2022-08-04T18:26:03.791Z,32.54
2022-08-04T18:28:34.015Z,32.46
2022-08-04T18:31:02.736Z,32.34
2022-08-04T18:33:39.442Z,32.29
2022-08-04T18:36:32.665Z,32.21
2022-08-04T18:38:59.033Z,32.13
2022-08-04T18:41:28.221Z,32.06
2022-08-04T18:43:57.921Z,31.98
2022-08-04T18:46:28.612Z,31.91
2022-08-04T18:48:58.281Z,31.81
2022-08-04T18:51:31.059Z,31.72
2022-08-04T18:53:59.734Z,31.65
2022-08-04T18:56:29.518Z,31.56
2022-08-04T18:59:01.653Z,31.47
2022-08-04T19:02:12.817Z,31.40
2022-08-04T19:04:32.344Z,31.30
2022-08-04T19:07:24.523Z,31.21
2022-08-04T19:09:52.535Z,31.12
2022-08-04T19:12:27.373Z,31.02
2022-08-04T19:15:06.055Z,30.93
2022-08-04T19:17:52.468Z,30.82
2022-08-04T19:24:27.076Z,30.65
2022-08-04T19:26:04.752Z,30.56
2022-08-04T19:28:37.237Z,30.48
2022-08-04T19:31:08.415Z,30.40
2022-08-04T19:33:58.191Z,30.33
2022-08-04T19:36:28.687Z,30.21
2022-08-04T19:38:58.126Z,30.11
2022-08-04T19:41:27.135Z,30.02
2022-08-04T19:43:55.573Z,29.95
2022-08-04T19:46:28.433Z,29.87
2022-08-04T19:48:59.147Z,29.77
2022-08-04T19:51:28.109Z,29.68
2022-08-04T19:54:04.196Z,29.59
2022-08-04T20:19:13.824Z,28.73
2022-08-04T20:21:55.024Z,28.68
2022-08-04T20:24:38.799Z,28.63
2022-08-04T20:27:14.578Z,28.60
2022-08-04T20:29:48.278Z,28.54
2022-08-04T20:32:21.863Z,28.46
2022-08-04T20:34:52.061Z,28.42
2022-08-04T20:37:20.711Z,28.34
2022-08-04T20:39:54.625Z,28.29
2022-08-04T20:42:27.031Z,28.24
2022-08-04T20:44:56.380Z,28.19
2022-08-04T20:47:26.904Z,28.15
2022-08-04T20:50:04.688Z,28.11
2022-08-04T20:52:33.359Z,28.03
2022-08-04T20:55:03.326Z,27.96
2022-08-04T20:57:48.411Z,27.92
2022-08-04T21:00:29.895Z,27.84
2022-08-04T21:03:00.087Z,27.75
2022-08-04T21:05:28.498Z,27.67
2022-08-04T21:07:57.372Z,27.58
2022-08-04T21:10:26.240Z,27.52
2022-08-04T21:12:55.118Z,27.47
2022-08-04T21:15:25.508Z,27.43
2022-08-04T21:17:59.523Z,27.35
2022-08-04T21:20:36.135Z,27.30
2022-08-04T21:23:07.655Z,27.23
2022-08-04T21:25:42.710Z,27.17
2022-08-04T21:28:11.197Z,27.09
2022-08-04T21:30:54.245Z,27.03
2022-08-04T21:33:49.977Z,26.97
2022-08-04T21:36:16.105Z,26.92
2022-08-04T21:38:51.213Z,26.88
2022-08-04T21:41:24.888Z,26.86
2022-08-04T21:43:56.646Z,26.74
2022-08-04T21:46:27.510Z,26.65
2022-08-04T21:48:58.776Z,26.59
2022-08-04T21:52:00.189Z,26.51
2022-08-04T21:54:19.097Z,26.42
2022-08-04T21:56:50.875Z,26.36
2022-08-04T21:59:23.766Z,26.29
2022-08-04T22:02:00.096Z,26.25
2022-08-04T22:04:29.011Z,26.19
2022-08-04T22:06:58.452Z,26.15
2022-08-04T22:09:41.458Z,26.09
2022-08-04T22:12:12.074Z,26.05
2022-08-04T22:14:40.667Z,25.98
2022-08-04T22:17:13.712Z,25.92
2022-08-04T22:19:55.817Z,25.87
2022-08-04T22:22:29.533Z,25.78
2022-08-04T22:25:01.680Z,25.72
2022-08-04T22:27:55.147Z,25.67
2022-08-04T22:30:23.842Z,25.63
2022-08-04T22:32:52.467Z,25.59
2022-08-04T22:35:33.358Z,25.55
2022-08-04T22:38:21.333Z,25.49
2022-08-04T22:41:01.107Z,25.43
2022-08-04T22:43:33.206Z,25.35
2022-08-04T22:46:03.795Z,25.27
2022-08-04T22:48:32.667Z,25.24
2022-08-04T22:51:01.075Z,25.18
2022-08-04T22:53:32.677Z,25.13
2022-08-04T22:56:09.632Z,25.09
2022-08-04T22:58:40.801Z,25.06
2022-08-04T23:01:14.942Z,25.02
2022-08-04T23:03:55.261Z,24.97
2022-08-04T23:06:25.435Z,24.95
2022-08-04T23:08:55.336Z,24.91
2022-08-04T23:11:23.588Z,24.86
2022-08-04T23:13:51.757Z,24.84
2022-08-04T23:16:21.192Z,24.78
2022-08-04T23:18:52.785Z,24.72
2022-08-04T23:21:24.281Z,24.69
2022-08-04T23:24:00.607Z,24.66
2022-08-04T23:26:32.267Z,24.64
2022-08-04T23:29:03.969Z,24.54
2022-08-04T23:31:40.804Z,24.49
2022-08-04T23:34:12.050Z,24.46
2022-08-04T23:36:42.427Z,24.44
2022-08-04T23:39:10.749Z,24.41
2022-08-04T23:41:53.403Z,24.39
2022-08-04T23:44:24.966Z,24.34
2022-08-04T23:46:59.339Z,24.29
2022-08-04T23:49:44.351Z,24.24
2022-08-04T23:52:23.339Z,24.22
2022-08-04T23:54:58.760Z,24.20
2022-08-04T23:58:02.309Z,24.14
